sensor_id;sensor_type;location;lat;lon;timestamp;pressure;altitude;pressure_sealevel;temperature;humidity
19286;BME280;9776;50.798;6.430;2023-07-31T00:01:04;99875.06;;;18.45;71.47
19286;BME280;9776;50.798;6.430;2023-07-31T00:03:30;99875.66;;;18.47;71.33
19286;BME280;9776;50.798;6.430;2023-07-31T00:05:57;99869.53;;;18.47;71.46
19286;BME280;9776;50.798;6.430;2023-07-31T00:08:24;99884.50;;;18.48;71.36
19286;BME280;9776;50.798;6.430;2023-07-31T00:10:52;99876.94;;;18.51;71.32
19286;BME280;9776;50.798;6.430;2023-07-31T00:13:19;99869.34;;;18.48;71.10
19286;BME280;9776;50.798;6.430;2023-07-31T00:15:46;99878.19;;;18.49;71.32
19286;BME280;9776;50.798;6.430;2023-07-31T00:18:13;99873.41;;;18.44;71.39
19286;BME280;9776;50.798;6.430;2023-07-31T00:20:39;99873.22;;;18.46;71.22
19286;BME280;9776;50.798;6.430;2023-07-31T00:23:06;99866.84;;;18.47;71.20
19286;BME280;9776;50.798;6.430;2023-07-31T00:25:33;99872.63;;;18.44;71.54
19286;BME280;9776;50.798;6.430;2023-07-31T00:28:01;99880.63;;;18.44;71.51
19286;BME280;9776;50.798;6.430;2023-07-31T00:30:28;99884.72;;;18.46;71.22
19286;BME280;9776;50.798;6.430;2023-07-31T00:32:54;99884.09;;;18.44;71.34
19286;BME280;9776;50.798;6.430;2023-07-31T00:35:21;99880.41;;;18.45;71.37
19286;BME280;9776;50.798;6.430;2023-07-31T00:37:48;99884.72;;;18.46;71.48
19286;BME280;9776;50.798;6.430;2023-07-31T00:40:15;99869.94;;;18.44;71.41
19286;BME280;9776;50.798;6.430;2023-07-31T00:42:41;99882.25;;;18.45;71.18
19286;BME280;9776;50.798;6.430;2023-07-31T00:45:10;99876.09;;;18.44;71.24
19286;BME280;9776;50.798;6.430;2023-07-31T00:47:36;99876.31;;;18.43;71.11
19286;BME280;9776;50.798;6.430;2023-07-31T00:50:05;99881.00;;;18.47;71.08
19286;BME280;9776;50.798;6.430;2023-07-31T00:52:32;99877.75;;;18.45;71.04
19286;BME280;9776;50.798;6.430;2023-07-31T00:54:59;99870.97;;;18.43;71.13
19286;BME280;9776;50.798;6.430;2023-07-31T00:57:26;99869.13;;;18.37;71.14
19286;BME280;9776;50.798;6.430;2023-07-31T00:59:53;99858.69;;;18.29;71.70
19286;BME280;9776;50.798;6.430;2023-07-31T01:02:21;99850.25;;;18.25;71.57
19286;BME280;9776;50.798;6.430;2023-07-31T01:04:48;99854.19;;;18.23;71.61
19286;BME280;9776;50.798;6.430;2023-07-31T01:07:22;99844.94;;;18.19;72.06
19286;BME280;9776;50.798;6.430;2023-07-31T01:10:01;99844.56;;;18.15;71.92
19286;BME280;9776;50.798;6.430;2023-07-31T01:12:30;99849.69;;;18.17;72.17
19286;BME280;9776;50.798;6.430;2023-07-31T01:15:05;99851.94;;;18.13;72.16
19286;BME280;9776;50.798;6.430;2023-07-31T01:17:33;99836.53;;;18.15;72.04
19286;BME280;9776;50.798;6.430;2023-07-31T01:20:02;99836.91;;;18.19;72.14
19286;BME280;9776;50.798;6.430;2023-07-31T01:22:54;99836.75;;;18.13;72.30
19286;BME280;9776;50.798;6.430;2023-07-31T01:28:12;99835.06;;;18.19;72.22
19286;BME280;9776;50.798;6.430;2023-07-31T01:30:43;99838.56;;;18.20;71.90
19286;BME280;9776;50.798;6.430;2023-07-31T01:33:11;99822.38;;;18.14;72.26
19286;BME280;9776;50.798;6.430;2023-07-31T01:35:39;99833.06;;;18.14;72.14
19286;BME280;9776;50.798;6.430;2023-07-31T01:38:06;99825.63;;;18.17;71.97
19286;BME280;9776;50.798;6.430;2023-07-31T01:40:33;99827.66;;;18.21;71.94
19286;BME280;9776;50.798;6.430;2023-07-31T01:42:59;99822.94;;;18.23;71.93
19286;BME280;9776;50.798;6.430;2023-07-31T01:45:27;99821.53;;;18.21;71.85
19286;BME280;9776;50.798;6.430;2023-07-31T01:47:54;99824.78;;;18.23;71.81
19286;BME280;9776;50.798;6.430;2023-07-31T01:50:21;99825.19;;;18.26;71.77
19286;BME280;9776;50.798;6.430;2023-07-31T01:52:47;99816.78;;;18.29;71.64
19286;BME280;9776;50.798;6.430;2023-07-31T01:55:14;99825.97;;;18.33;71.26
19286;BME280;9776;50.798;6.430;2023-07-31T01:57:41;99820.44;;;18.35;71.07
19286;BME280;9776;50.798;6.430;2023-07-31T02:00:08;99813.03;;;18.37;71.04
19286;BME280;9776;50.798;6.430;2023-07-31T02:02:36;99814.03;;;18.42;71.00
19286;BME280;9776;50.798;6.430;2023-07-31T02:05:03;99820.38;;;18.41;70.73
19286;BME280;9776;50.798;6.430;2023-07-31T02:07:30;99821.84;;;18.44;70.47
19286;BME280;9776;50.798;6.430;2023-07-31T02:09:57;99810.34;;;18.43;70.65
19286;BME280;9776;50.798;6.430;2023-07-31T02:12:24;99801.06;;;18.46;70.55
19286;BME280;9776;50.798;6.430;2023-07-31T02:14:50;99804.34;;;18.48;70.26
19286;BME280;9776;50.798;6.430;2023-07-31T02:17:17;99805.59;;;18.52;70.22
19286;BME280;9776;50.798;6.430;2023-07-31T02:19:45;99799.19;;;18.53;70.19
19286;BME280;9776;50.798;6.430;2023-07-31T02:22:12;99800.41;;;18.57;70.09
19286;BME280;9776;50.798;6.430;2023-07-31T02:24:38;99799.41;;;18.58;69.76
19286;BME280;9776;50.798;6.430;2023-07-31T02:27:06;99793.44;;;18.56;69.83
19286;BME280;9776;50.798;6.430;2023-07-31T02:29:32;99795.06;;;18.57;69.86
19286;BME280;9776;50.798;6.430;2023-07-31T02:31:59;99794.25;;;18.56;69.75
19286;BME280;9776;50.798;6.430;2023-07-31T02:34:26;99788.09;;;18.56;69.98
19286;BME280;9776;50.798;6.430;2023-07-31T02:36:54;99796.72;;;18.58;69.73
19286;BME280;9776;50.798;6.430;2023-07-31T02:39:20;99777.19;;;18.57;69.71
19286;BME280;9776;50.798;6.430;2023-07-31T02:41:47;99783.34;;;18.58;69.86
19286;BME280;9776;50.798;6.430;2023-07-31T02:44:14;99784.78;;;18.60;69.73
19286;BME280;9776;50.798;6.430;2023-07-31T02:46:41;99786.19;;;18.63;69.56
19286;BME280;9776;50.798;6.430;2023-07-31T02:49:07;99784.56;;;18.62;69.63
19286;BME280;9776;50.798;6.430;2023-07-31T02:51:34;99779.44;;;18.60;69.72
19286;BME280;9776;50.798;6.430;2023-07-31T02:54:02;99784.56;;;18.62;69.73
19286;BME280;9776;50.798;6.430;2023-07-31T02:56:29;99782.28;;;18.65;69.63
19286;BME280;9776;50.798;6.430;2023-07-31T02:58:56;99769.75;;;18.66;69.45
19286;BME280;9776;50.798;6.430;2023-07-31T03:01:22;99771.19;;;18.62;69.56
19286;BME280;9776;50.798;6.430;2023-07-31T03:03:49;99772.84;;;18.63;69.36
19286;BME280;9776;50.798;6.430;2023-07-31T03:06:16;99762.16;;;18.63;69.58
19286;BME280;9776;50.798;6.430;2023-07-31T03:08:42;99757.00;;;18.61;69.64
19286;BME280;9776;50.798;6.430;2023-07-31T03:11:10;99758.88;;;18.61;69.46
19286;BME280;9776;50.798;6.430;2023-07-31T03:13:37;99758.88;;;18.61;69.60
19286;BME280;9776;50.798;6.430;2023-07-31T03:16:04;99754.94;;;18.63;69.63
19286;BME280;9776;50.798;6.430;2023-07-31T03:18:30;99759.88;;;18.66;69.48
19286;BME280;9776;50.798;6.430;2023-07-31T03:20:57;99750.22;;;18.59;69.65
19286;BME280;9776;50.798;6.430;2023-07-31T03:23:24;99758.06;;;18.60;69.49
19286;BME280;9776;50.798;6.430;2023-07-31T03:25:58;99760.50;;;18.62;69.41
19286;BME280;9776;50.798;6.430;2023-07-31T03:28:26;99762.16;;;18.63;69.44
19286;BME280;9776;50.798;6.430;2023-07-31T03:30:53;99748.38;;;18.59;69.65
19286;BME280;9776;50.798;6.430;2023-07-31T03:33:20;99752.72;;;18.60;69.41
19286;BME280;9776;50.798;6.430;2023-07-31T03:35:46;99748.19;;;18.61;69.33
19286;BME280;9776;50.798;6.430;2023-07-31T03:38:13;99758.22;;;18.65;69.66
19286;BME280;9776;50.798;6.430;2023-07-31T03:40:40;99747.09;;;18.68;69.45
19286;BME280;9776;50.798;6.430;2023-07-31T03:43:07;99748.94;;;18.68;69.38
19286;BME280;9776;50.798;6.430;2023-07-31T03:45:35;99735.81;;;18.66;69.28
19286;BME280;9776;50.798;6.430;2023-07-31T03:48:03;99737.44;;;18.67;69.13
19286;BME280;9776;50.798;6.430;2023-07-31T03:50:29;99737.06;;;18.64;69.40
19286;BME280;9776;50.798;6.430;2023-07-31T03:52:56;99730.66;;;18.65;69.32
19286;BME280;9776;50.798;6.430;2023-07-31T03:55:23;99733.34;;;18.65;69.33
19286;BME280;9776;50.798;6.430;2023-07-31T03:57:49;99739.91;;;18.69;69.26
19286;BME280;9776;50.798;6.430;2023-07-31T04:00:16;99737.22;;;18.69;69.07
19286;BME280;9776;50.798;6.430;2023-07-31T04:02:44;99731.28;;;18.67;69.10
19286;BME280;9776;50.798;6.430;2023-07-31T04:05:11;99736.41;;;18.68;68.96
19286;BME280;9776;50.798;6.430;2023-07-31T04:07:38;99736.19;;;18.70;68.73
19286;BME280;9776;50.798;6.430;2023-07-31T04:10:05;99720.75;;;18.72;68.84
19286;BME280;9776;50.798;6.430;2023-07-31T04:12:32;99726.94;;;18.73;68.88
19286;BME280;9776;50.798;6.430;2023-07-31T04:14:58;99709.00;;;18.73;68.61
19286;BME280;9776;50.798;6.430;2023-07-31T04:17:25;99709.41;;;18.77;68.70
19286;BME280;9776;50.798;6.430;2023-07-31T04:19:53;99707.56;;;18.77;68.57
19286;BME280;9776;50.798;6.430;2023-07-31T04:22:20;99711.06;;;18.78;68.75
19286;BME280;9776;50.798;6.430;2023-07-31T04:24:47;99710.47;;;18.76;68.73
19286;BME280;9776;50.798;6.430;2023-07-31T04:27:13;99712.31;;;18.75;68.79
19286;BME280;9776;50.798;6.430;2023-07-31T04:29:40;99701.19;;;18.78;68.55
19286;BME280;9776;50.798;6.430;2023-07-31T04:32:08;99709.78;;;18.80;68.50
19286;BME280;9776;50.798;6.430;2023-07-31T04:34:34;99714.31;;;18.80;68.38
19286;BME280;9776;50.798;6.430;2023-07-31T04:37:03;99702.38;;;18.82;68.27
19286;BME280;9776;50.798;6.430;2023-07-31T04:39:30;99709.34;;;18.83;68.18
19286;BME280;9776;50.798;6.430;2023-07-31T04:41:56;99699.09;;;18.80;68.29
19286;BME280;9776;50.798;6.430;2023-07-31T04:44:23;99697.25;;;18.81;68.06
19286;BME280;9776;50.798;6.430;2023-07-31T04:46:51;99699.50;;;18.84;68.04
19286;BME280;9776;50.798;6.430;2023-07-31T04:49:17;99692.94;;;18.80;68.05
19286;BME280;9776;50.798;6.430;2023-07-31T04:51:45;99699.53;;;18.77;68.09
19286;BME280;9776;50.798;6.430;2023-07-31T04:54:13;99691.06;;;18.80;67.89
19286;BME280;9776;50.798;6.430;2023-07-31T04:56:40;99689.44;;;18.79;67.95
19286;BME280;9776;50.798;6.430;2023-07-31T04:59:07;99689.63;;;18.84;67.88
19286;BME280;9776;50.798;6.430;2023-07-31T05:01:34;99682.78;;;18.88;67.84
19286;BME280;9776;50.798;6.430;2023-07-31T05:04:00;99692.22;;;18.91;67.83
19286;BME280;9776;50.798;6.430;2023-07-31T05:06:27;99693.44;;;18.95;67.61
19286;BME280;9776;50.798;6.430;2023-07-31T05:08:54;99685.94;;;19.03;67.45
19286;BME280;9776;50.798;6.430;2023-07-31T05:11:22;99690.03;;;19.06;67.10
19286;BME280;9776;50.798;6.430;2023-07-31T05:13:49;99681.19;;;19.05;67.09
19286;BME280;9776;50.798;6.430;2023-07-31T05:16:15;99690.25;;;19.04;67.50
19286;BME280;9776;50.798;6.430;2023-07-31T05:18:42;99680.97;;;19.07;67.38
19286;BME280;9776;50.798;6.430;2023-07-31T05:21:09;99676.00;;;19.10;67.14
19286;BME280;9776;50.798;6.430;2023-07-31T05:23:36;99677.03;;;19.09;67.21
19286;BME280;9776;50.798;6.430;2023-07-31T05:26:03;99682.38;;;19.09;67.10
19286;BME280;9776;50.798;6.430;2023-07-31T05:28:33;99668.44;;;19.07;67.21
19286;BME280;9776;50.798;6.430;2023-07-31T05:31:00;99668.88;;;19.04;67.31
19286;BME280;9776;50.798;6.430;2023-07-31T05:33:27;99673.97;;;19.06;67.23
19286;BME280;9776;50.798;6.430;2023-07-31T05:35:53;99664.53;;;19.03;67.16
19286;BME280;9776;50.798;6.430;2023-07-31T05:38:20;99664.94;;;19.07;67.17
19286;BME280;9776;50.798;6.430;2023-07-31T05:40:47;99660.16;;;19.09;67.08
19286;BME280;9776;50.798;6.430;2023-07-31T05:43:14;99654.00;;;19.08;67.15
19286;BME280;9776;50.798;6.430;2023-07-31T05:45:43;99651.56;;;19.07;67.32
19286;BME280;9776;50.798;6.430;2023-07-31T05:48:10;99652.63;;;18.99;67.72
19286;BME280;9776;50.798;6.430;2023-07-31T05:50:37;99643.19;;;18.97;67.79
19286;BME280;9776;50.798;6.430;2023-07-31T05:53:04;99642.47;;;18.90;68.41
19286;BME280;9776;50.798;6.430;2023-07-31T05:55:31;99640.00;;;18.88;68.55
19286;BME280;9776;50.798;6.430;2023-07-31T05:57:58;99636.13;;;18.84;68.92
19286;BME280;9776;50.798;6.430;2023-07-31T06:00:25;99635.69;;;18.87;69.06
19286;BME280;9776;50.798;6.430;2023-07-31T06:02:54;99633.19;;;18.92;69.27
19286;BME280;9776;50.798;6.430;2023-07-31T06:05:21;99624.56;;;18.90;69.21
19286;BME280;9776;50.798;6.430;2023-07-31T06:07:47;99618.41;;;18.90;69.59
19286;BME280;9776;50.798;6.430;2023-07-31T06:10:14;99622.47;;;18.92;69.53
19286;BME280;9776;50.798;6.430;2023-07-31T06:12:41;99612.59;;;18.93;69.69
19286;BME280;9776;50.798;6.430;2023-07-31T06:15:08;99618.53;;;18.95;69.49
19286;BME280;9776;50.798;6.430;2023-07-31T06:17:36;99610.91;;;18.98;69.64
19286;BME280;9776;50.798;6.430;2023-07-31T06:20:06;99611.88;;;19.04;69.52
19286;BME280;9776;50.798;6.430;2023-07-31T06:22:33;99610.81;;;19.05;69.20
19286;BME280;9776;50.798;6.430;2023-07-31T06:25:00;99615.97;;;19.06;69.39
19286;BME280;9776;50.798;6.430;2023-07-31T06:27:26;99615.06;;;19.12;69.06
19286;BME280;9776;50.798;6.430;2023-07-31T06:29:53;99617.31;;;19.15;69.03
19286;BME280;9776;50.798;6.430;2023-07-31T06:32:20;99603.63;;;19.23;68.66
19286;BME280;9776;50.798;6.430;2023-07-31T06:34:47;99609.28;;;19.34;68.42
19286;BME280;9776;50.798;6.430;2023-07-31T06:37:15;99613.56;;;19.41;68.04
19286;BME280;9776;50.798;6.430;2023-07-31T06:39:42;99619.28;;;19.45;68.03
19286;BME280;9776;50.798;6.430;2023-07-31T06:42:09;99618.22;;;19.46;67.87
19286;BME280;9776;50.798;6.430;2023-07-31T06:44:35;99603.00;;;19.46;67.80
19286;BME280;9776;50.798;6.430;2023-07-31T06:47:02;99606.63;;;19.52;67.67
19286;BME280;9776;50.798;6.430;2023-07-31T06:49:29;99605.28;;;19.61;67.41
19286;BME280;9776;50.798;6.430;2023-07-31T06:51:56;99600.66;;;19.68;67.12
19286;BME280;9776;50.798;6.430;2023-07-31T06:54:24;99597.06;;;19.74;66.88
19286;BME280;9776;50.798;6.430;2023-07-31T06:56:50;99598.56;;;19.70;66.83
19286;BME280;9776;50.798;6.430;2023-07-31T06:59:17;99601.25;;;19.70;67.06
19286;BME280;9776;50.798;6.430;2023-07-31T07:01:44;99592.84;;;19.66;67.07
19286;BME280;9776;50.798;6.430;2023-07-31T07:04:10;99593.31;;;19.63;66.80
19286;BME280;9776;50.798;6.430;2023-07-31T07:06:37;99605.28;;;19.61;66.89
19286;BME280;9776;50.798;6.430;2023-07-31T07:09:04;99609.81;;;19.60;67.00
19286;BME280;9776;50.798;6.430;2023-07-31T07:11:32;99608.41;;;19.58;66.82
19286;BME280;9776;50.798;6.430;2023-07-31T07:13:59;99599.09;;;19.60;66.91
19286;BME280;9776;50.798;6.430;2023-07-31T07:16:28;99618.47;;;19.62;66.88
19286;BME280;9776;50.798;6.430;2023-07-31T07:18:54;99606.03;;;19.68;66.51
19286;BME280;9776;50.798;6.430;2023-07-31T07:21:21;99609.88;;;19.72;66.61
19286;BME280;9776;50.798;6.430;2023-07-31T07:23:48;99611.50;;;19.73;66.39
19286;BME280;9776;50.798;6.430;2023-07-31T07:26:14;99607.19;;;19.72;66.36
19286;BME280;9776;50.798;6.430;2023-07-31T07:28:42;99606.03;;;19.68;66.67
19286;BME280;9776;50.798;6.430;2023-07-31T07:31:09;99584.75;;;19.55;67.10
19286;BME280;9776;50.798;6.430;2023-07-31T07:33:36;99589.59;;;19.46;67.04
19286;BME280;9776;50.798;6.430;2023-07-31T07:36:03;99586.38;;;19.38;67.32
19286;BME280;9776;50.798;6.430;2023-07-31T07:38:31;99579.63;;;19.35;67.62
19286;BME280;9776;50.798;6.430;2023-07-31T07:40:58;99579.59;;;19.42;67.27
19286;BME280;9776;50.798;6.430;2023-07-31T07:43:24;99576.81;;;19.48;67.26
19286;BME280;9776;50.798;6.430;2023-07-31T07:45:56;99576.41;;;19.63;67.04
19286;BME280;9776;50.798;6.430;2023-07-31T07:48:23;99579.25;;;19.68;66.92
19286;BME280;9776;50.798;6.430;2023-07-31T07:50:50;99585.41;;;19.68;67.10
19286;BME280;9776;50.798;6.430;2023-07-31T07:53:17;99584.16;;;19.71;66.80
19286;BME280;9776;50.798;6.430;2023-07-31T07:55:43;99587.41;;;19.73;66.89
19286;BME280;9776;50.798;6.430;2023-07-31T07:58:10;99577.16;;;19.70;66.81
19286;BME280;9776;50.798;6.430;2023-07-31T08:00:37;99572.50;;;19.77;66.71
19286;BME280;9776;50.798;6.430;2023-07-31T08:03:05;99568.38;;;19.93;66.20
19286;BME280;9776;50.798;6.430;2023-07-31T08:05:32;99568.06;;;20.01;65.96
19286;BME280;9776;50.798;6.430;2023-07-31T08:08:00;99554.44;;;20.02;65.96
19286;BME280;9776;50.798;6.430;2023-07-31T08:10:26;99560.06;;;20.12;65.39
19286;BME280;9776;50.798;6.430;2023-07-31T08:12:53;99561.00;;;20.18;65.14
19286;BME280;9776;50.798;6.430;2023-07-31T08:15:20;99556.16;;;20.26;64.72
19286;BME280;9776;50.798;6.430;2023-07-31T08:17:47;99559.31;;;20.35;64.27
19286;BME280;9776;50.798;6.430;2023-07-31T08:20:15;99548.38;;;20.36;64.10
19286;BME280;9776;50.798;6.430;2023-07-31T08:22:42;99538.13;;;20.68;63.22
19286;BME280;9776;50.798;6.430;2023-07-31T08:25:08;99543.31;;;21.21;61.79
19286;BME280;9776;50.798;6.430;2023-07-31T08:27:35;99557.44;;;21.57;60.68
19286;BME280;9776;50.798;6.430;2023-07-31T08:30:02;99550.47;;;21.56;60.63
19286;BME280;9776;50.798;6.430;2023-07-31T08:32:29;99542.75;;;21.47;60.58
19286;BME280;9776;50.798;6.430;2023-07-31T08:34:56;99562.91;;;21.22;60.60
19286;BME280;9776;50.798;6.430;2023-07-31T08:37:24;99558.38;;;20.99;60.95
19286;BME280;9776;50.798;6.430;2023-07-31T08:39:51;99562.00;;;20.93;60.96
19286;BME280;9776;50.798;6.430;2023-07-31T08:42:19;99559.69;;;20.85;61.12
19286;BME280;9776;50.798;6.430;2023-07-31T08:44:46;99570.78;;;20.77;60.72
19286;BME280;9776;50.798;6.430;2023-07-31T08:47:13;99562.38;;;20.73;60.96
19286;BME280;9776;50.798;6.430;2023-07-31T08:49:41;99556.19;;;20.73;60.64
19286;BME280;9776;50.798;6.430;2023-07-31T08:52:08;99570.41;;;20.85;60.14
19286;BME280;9776;50.798;6.430;2023-07-31T08:54:37;99560.25;;;21.10;59.34
19286;BME280;9776;50.798;6.430;2023-07-31T08:57:06;99571.25;;;21.48;58.55
19286;BME280;9776;50.798;6.430;2023-07-31T08:59:34;99566.31;;;21.57;58.19
19286;BME280;9776;50.798;6.430;2023-07-31T09:02:05;99568.78;;;21.59;58.22
19286;BME280;9776;50.798;6.430;2023-07-31T09:04:32;99570.56;;;21.81;57.48
19286;BME280;9776;50.798;6.430;2023-07-31T09:07:00;99570.97;;;22.01;57.03
19286;BME280;9776;50.798;6.430;2023-07-31T09:09:28;99565.75;;;22.12;56.84
19286;BME280;9776;50.798;6.430;2023-07-31T09:11:57;99570.41;;;22.16;56.45
19286;BME280;9776;50.798;6.430;2023-07-31T09:14:24;99571.38;;;22.27;56.40
19286;BME280;9776;50.798;6.430;2023-07-31T09:16:52;99573.25;;;22.26;56.33
19286;BME280;9776;50.798;6.430;2023-07-31T09:19:25;99580.16;;;22.05;56.46
19286;BME280;9776;50.798;6.430;2023-07-31T09:21:52;99574.22;;;22.20;56.26
19286;BME280;9776;50.798;6.430;2023-07-31T09:24:25;99575.22;;;22.81;54.87
19286;BME280;9776;50.798;6.430;2023-07-31T09:26:54;99560.09;;;23.35;53.58
19286;BME280;9776;50.798;6.430;2023-07-31T09:29:22;99560.25;;;23.98;52.04
19286;BME280;9776;50.798;6.430;2023-07-31T09:31:50;99547.34;;;25.06;49.75
19286;BME280;9776;50.798;6.430;2023-07-31T09:34:17;99546.59;;;26.03;47.95
19286;BME280;9776;50.798;6.430;2023-07-31T09:36:45;99546.28;;;25.74;48.49
19286;BME280;9776;50.798;6.430;2023-07-31T09:39:13;99540.44;;;25.30;48.77
19286;BME280;9776;50.798;6.430;2023-07-31T09:41:43;99542.31;;;24.77;49.58
19286;BME280;9776;50.798;6.430;2023-07-31T09:44:10;99537.94;;;24.71;50.01
19286;BME280;9776;50.798;6.430;2023-07-31T09:46:38;99536.34;;;24.75;49.70
19286;BME280;9776;50.798;6.430;2023-07-31T09:49:07;99528.69;;;24.62;49.50
19286;BME280;9776;50.798;6.430;2023-07-31T09:51:34;99542.69;;;24.54;49.43
19286;BME280;9776;50.798;6.430;2023-07-31T09:54:08;99533.97;;;24.79;48.98
19286;BME280;9776;50.798;6.430;2023-07-31T09:56:36;99539.75;;;25.03;48.40
19286;BME280;9776;50.798;6.430;2023-07-31T09:59:04;99536.69;;;25.31;47.83
19286;BME280;9776;50.798;6.430;2023-07-31T10:01:31;99525.88;;;25.41;47.31
19286;BME280;9776;50.798;6.430;2023-07-31T10:04:01;99530.38;;;26.13;45.96
19286;BME280;9776;50.798;6.430;2023-07-31T10:06:28;99523.00;;;27.63;43.41
19286;BME280;9776;50.798;6.430;2023-07-31T10:08:56;99523.78;;;28.41;41.63
19286;BME280;9776;50.798;6.430;2023-07-31T10:11:25;99515.00;;;28.21;41.72
19286;BME280;9776;50.798;6.430;2023-07-31T10:13:54;99521.47;;;27.42;43.51
19286;BME280;9776;50.798;6.430;2023-07-31T10:16:22;99522.69;;;28.08;42.63
19286;BME280;9776;50.798;6.430;2023-07-31T10:18:50;99537.28;;;27.74;42.79
19286;BME280;9776;50.798;6.430;2023-07-31T10:21:19;99521.75;;;27.40;43.27
19286;BME280;9776;50.798;6.430;2023-07-31T10:23:46;99543.88;;;26.73;44.47
19286;BME280;9776;50.798;6.430;2023-07-31T10:26:14;99536.34;;;26.15;45.85
19286;BME280;9776;50.798;6.430;2023-07-31T10:28:42;99539.06;;;26.20;45.67
19286;BME280;9776;50.798;6.430;2023-07-31T10:31:10;99526.03;;;25.91;46.48
19286;BME280;9776;50.798;6.430;2023-07-31T10:33:37;99531.44;;;25.91;46.70
19286;BME280;9776;50.798;6.430;2023-07-31T10:36:14;99529.56;;;26.07;46.59
19286;BME280;9776;50.798;6.430;2023-07-31T10:38:44;99537.78;;;25.45;47.79
19286;BME280;9776;50.798;6.430;2023-07-31T10:41:11;99536.63;;;25.26;48.30
19286;BME280;9776;50.798;6.430;2023-07-31T10:43:38;99543.91;;;25.25;48.76
19286;BME280;9776;50.798;6.430;2023-07-31T10:46:08;99540.28;;;25.57;48.52
19286;BME280;9776;50.798;6.430;2023-07-31T10:48:35;99549.31;;;26.08;47.77
19286;BME280;9776;50.798;6.430;2023-07-31T10:51:07;99534.16;;;26.02;47.91
19286;BME280;9776;50.798;6.430;2023-07-31T10:53:33;99538.78;;;26.21;47.79
19286;BME280;9776;50.798;6.430;2023-07-31T10:56:03;99536.63;;;26.18;47.98
19286;BME280;9776;50.798;6.430;2023-07-31T10:58:30;99545.50;;;26.04;48.44
19286;BME280;9776;50.798;6.430;2023-07-31T11:00:59;99533.06;;;25.98;48.38
19286;BME280;9776;50.798;6.430;2023-07-31T11:03:27;99524.63;;;25.54;49.23
19286;BME280;9776;50.798;6.430;2023-07-31T11:06:00;99518.16;;;25.60;49.33
19286;BME280;9776;50.798;6.430;2023-07-31T11:08:29;99517.66;;;26.64;46.76
19286;BME280;9776;50.798;6.430;2023-07-31T11:11:08;99502.19;;;28.55;42.98
19286;BME280;9776;50.798;6.430;2023-07-31T11:13:41;99518.22;;;30.07;40.30
19286;BME280;9776;50.798;6.430;2023-07-31T11:16:09;99507.84;;;31.78;37.43
19286;BME280;9776;50.798;6.430;2023-07-31T11:18:37;99524.00;;;31.38;38.00
19286;BME280;9776;50.798;6.430;2023-07-31T11:21:04;99525.91;;;31.52;37.23
19286;BME280;9776;50.798;6.430;2023-07-31T11:23:31;99526.28;;;30.31;39.29
19286;BME280;9776;50.798;6.430;2023-07-31T11:25:59;99522.41;;;30.51;38.85
19286;BME280;9776;50.798;6.430;2023-07-31T11:28:31;99523.56;;;30.77;38.33
19286;BME280;9776;50.798;6.430;2023-07-31T11:30:59;99520.06;;;31.31;37.71
19286;BME280;9776;50.798;6.430;2023-07-31T11:33:26;99524.16;;;30.74;38.47
19286;BME280;9776;50.798;6.430;2023-07-31T11:35:53;99519.41;;;29.45;40.51
19286;BME280;9776;50.798;6.430;2023-07-31T11:38:24;99504.72;;;28.51;42.36
19286;BME280;9776;50.798;6.430;2023-07-31T11:40:51;99509.63;;;28.15;42.79
19286;BME280;9776;50.798;6.430;2023-07-31T11:43:19;99518.16;;;27.99;43.09
19286;BME280;9776;50.798;6.430;2023-07-31T11:45:49;99503.84;;;28.27;42.60
19286;BME280;9776;50.798;6.430;2023-07-31T11:48:19;99505.50;;;27.84;43.42
19286;BME280;9776;50.798;6.430;2023-07-31T11:50:47;99508.00;;;27.76;43.54
19286;BME280;9776;50.798;6.430;2023-07-31T11:53:17;99491.66;;;29.86;39.97
19286;BME280;9776;50.798;6.430;2023-07-31T11:55:45;99495.88;;;31.02;37.54
19286;BME280;9776;50.798;6.430;2023-07-31T11:58:13;99481.81;;;30.68;37.90
19286;BME280;9776;50.798;6.430;2023-07-31T12:00:41;99491.09;;;30.67;38.22
19286;BME280;9776;50.798;6.430;2023-07-31T12:03:09;99481.88;;;30.17;39.04
19286;BME280;9776;50.798;6.430;2023-07-31T12:05:37;99497.84;;;30.23;38.95
19286;BME280;9776;50.798;6.430;2023-07-31T12:08:09;99496.13;;;29.58;39.94
19286;BME280;9776;50.798;6.430;2023-07-31T12:10:36;99496.41;;;29.38;40.15
19286;BME280;9776;50.798;6.430;2023-07-31T12:13:04;99505.94;;;29.35;40.17
19286;BME280;9776;50.798;6.430;2023-07-31T12:15:35;99504.47;;;28.77;41.05
19286;BME280;9776;50.798;6.430;2023-07-31T12:18:09;99487.75;;;28.02;42.51
19286;BME280;9776;50.798;6.430;2023-07-31T12:20:41;99473.78;;;27.41;43.50
19286;BME280;9776;50.798;6.430;2023-07-31T12:23:13;99491.28;;;27.04;44.50
19286;BME280;9776;50.798;6.430;2023-07-31T12:25:40;99496.56;;;26.35;45.41
19286;BME280;9776;50.798;6.430;2023-07-31T12:28:07;99478.16;;;26.07;46.09
19286;BME280;9776;50.798;6.430;2023-07-31T12:30:38;99479.25;;;25.91;46.54
19286;BME280;9776;50.798;6.430;2023-07-31T12:33:06;99481.09;;;25.60;47.01
19286;BME280;9776;50.798;6.430;2023-07-31T12:35:41;99466.44;;;25.41;47.61
19286;BME280;9776;50.798;6.430;2023-07-31T12:38:08;99466.78;;;25.55;47.35
19286;BME280;9776;50.798;6.430;2023-07-31T12:40:37;99465.47;;;25.92;46.55
19286;BME280;9776;50.798;6.430;2023-07-31T12:43:04;99463.00;;;26.41;45.64
19286;BME280;9776;50.798;6.430;2023-07-31T12:45:31;99462.13;;;26.81;44.87
19286;BME280;9776;50.798;6.430;2023-07-31T12:47:58;99475.66;;;26.76;45.05
19286;BME280;9776;50.798;6.430;2023-07-31T12:50:24;99484.41;;;26.18;46.29
19286;BME280;9776;50.798;6.430;2023-07-31T12:52:53;99476.75;;;25.54;47.43
19286;BME280;9776;50.798;6.430;2023-07-31T12:55:20;99468.03;;;25.22;47.97
19286;BME280;9776;50.798;6.430;2023-07-31T12:57:47;99458.00;;;25.12;48.46
19286;BME280;9776;50.798;6.430;2023-07-31T13:00:14;99441.25;;;25.10;48.56
19286;BME280;9776;50.798;6.430;2023-07-31T13:02:41;99422.06;;;25.07;48.65
19286;BME280;9776;50.798;6.430;2023-07-31T13:05:08;99403.41;;;25.05;48.63
19286;BME280;9776;50.798;6.430;2023-07-31T13:07:34;99395.03;;;24.97;48.65
19286;BME280;9776;50.798;6.430;2023-07-31T13:10:03;99383.69;;;24.90;48.70
19286;BME280;9776;50.798;6.430;2023-07-31T13:12:29;99371.25;;;24.94;48.68
19286;BME280;9776;50.798;6.430;2023-07-31T13:14:56;99363.47;;;25.12;48.34